createdAt,value
2018-11-01T00:01:01.516Z,5.37
2018-11-01T00:03:29.778Z,5.20
2018-11-01T00:05:58.135Z,6.00
2018-11-01T00:08:26.429Z,5.87
2018-11-01T00:10:54.870Z,5.58
2018-11-01T00:13:24.128Z,5.62
2018-11-01T00:15:52.377Z,5.30
2018-11-01T00:18:20.639Z,6.33
2018-11-01T00:20:49.252Z,5.62
2018-11-01T00:23:18.299Z,5.72
2018-11-01T00:25:46.571Z,5.58
2018-11-01T00:28:14.830Z,5.78
2018-11-01T00:30:43.090Z,5.12
2018-11-01T00:33:11.326Z,5.20
2018-11-01T00:35:39.615Z,5.50
2018-11-01T00:38:07.869Z,5.55
2018-11-01T00:40:37.697Z,5.62
2018-11-01T00:43:06.065Z,5.08
2018-11-01T00:45:34.295Z,5.25
2018-11-01T00:48:02.530Z,5.20
2018-11-01T00:50:31.706Z,5.08
2018-11-01T00:52:59.889Z,5.30
2018-11-01T00:55:28.135Z,5.62
2018-11-01T00:57:56.399Z,5.22
2018-11-01T01:00:24.666Z,5.05
2018-11-01T01:02:52.926Z,5.15
2018-11-01T01:05:21.178Z,5.50
2018-11-01T01:07:49.430Z,5.10
2018-11-01T01:10:18.913Z,5.08
2018-11-01T01:12:48.072Z,4.80
2018-11-01T01:15:16.309Z,6.05
2018-11-01T01:17:44.576Z,5.60
2018-11-01T01:20:14.121Z,5.53
2018-11-01T01:22:43.624Z,5.62
2018-11-01T01:25:13.155Z,5.37
2018-11-01T01:27:41.466Z,5.87
2018-11-01T01:30:15.218Z,5.22
2018-11-01T01:32:44.109Z,5.05
2018-11-01T01:35:12.691Z,5.37
2018-11-01T01:37:41.179Z,5.30
2018-11-01T01:40:10.598Z,5.45
2018-11-01T01:42:45.161Z,5.37
2018-11-01T01:45:14.998Z,5.30
2018-11-01T01:47:43.238Z,6.33
2018-11-01T01:50:12.929Z,5.10
2018-11-01T01:52:41.778Z,5.70
2018-11-01T01:55:10.266Z,5.50
2018-11-01T01:57:38.947Z,5.40
2018-11-01T02:00:14.434Z,5.55
2018-11-01T02:02:44.738Z,5.12
2018-11-01T02:05:12.973Z,5.65
2018-11-01T02:07:41.224Z,5.17
2018-11-01T02:10:11.531Z,4.62
2018-11-01T02:12:39.829Z,5.35
2018-11-01T02:15:10.342Z,5.78
2018-11-01T02:17:38.794Z,5.78
2018-11-01T02:20:09.185Z,5.37
2018-11-01T02:22:37.470Z,5.62
2018-11-01T02:25:07.058Z,5.35
2018-11-01T02:27:40.633Z,5.87
2018-11-01T02:30:11.232Z,5.58
2018-11-01T02:32:39.909Z,5.03
2018-11-01T02:35:09.333Z,5.70
2018-11-01T02:37:38.785Z,4.92
2018-11-01T02:40:07.205Z,5.62
2018-11-01T02:42:35.523Z,5.42
2018-11-01T02:45:06.216Z,6.55
2018-11-01T02:47:34.447Z,5.42
2018-11-01T02:50:02.778Z,5.33
2018-11-01T02:52:31.042Z,5.25
2018-11-01T02:54:59.273Z,6.03
2018-11-01T02:57:28.142Z,5.75
2018-11-01T02:59:56.416Z,5.25
2018-11-01T03:02:24.654Z,5.40
2018-11-01T03:04:52.967Z,4.97
2018-11-01T03:07:21.221Z,5.58
2018-11-01T03:09:49.786Z,4.67
2018-11-01T03:12:18.026Z,4.90
2018-11-01T03:14:46.276Z,5.95
2018-11-01T03:17:15.419Z,5.35
2018-11-01T03:19:43.612Z,4.75
2018-11-01T03:22:12.066Z,5.22
2018-11-01T03:24:40.308Z,5.92
2018-11-01T03:27:12.422Z,5.33
2018-11-01T03:29:40.820Z,4.67
2018-11-01T03:32:10.768Z,4.92
2018-11-01T03:34:39.132Z,5.53
2018-11-01T03:37:08.096Z,5.60
2018-11-01T03:39:36.453Z,5.78
2018-11-01T03:42:04.917Z,4.85
2018-11-01T03:44:33.165Z,5.62
2018-11-01T03:47:01.727Z,5.58
2018-11-01T03:49:30.944Z,4.80
2018-11-01T03:52:00.239Z,5.33
2018-11-01T03:54:28.944Z,4.92
2018-11-01T03:56:57.281Z,5.08
2018-11-01T03:59:25.556Z,4.72
2018-11-01T04:01:53.807Z,5.62
2018-11-01T04:04:23.071Z,5.28
2018-11-01T04:06:51.322Z,4.40
2018-11-01T04:09:19.580Z,4.85
2018-11-01T04:11:54.431Z,4.30
2018-11-01T04:14:22.667Z,4.65
2018-11-01T04:16:50.921Z,5.10
2018-11-01T04:19:19.170Z,4.78
2018-11-01T04:21:51.680Z,4.90
2018-11-01T04:24:19.918Z,4.83
2018-11-01T04:26:48.169Z,4.30
2018-11-01T04:29:16.429Z,4.47
2018-11-01T04:31:44.812Z,5.37
2018-11-01T04:34:13.053Z,5.58
2018-11-01T04:36:41.311Z,4.10
2018-11-01T04:39:10.459Z,4.20
2018-11-01T04:41:38.678Z,3.92
2018-11-01T04:44:07.712Z,4.83
2018-11-01T04:46:35.910Z,3.87
2018-11-01T04:49:04.182Z,4.10
2018-11-01T04:51:32.422Z,4.08
2018-11-01T04:54:00.653Z,3.70
2018-11-01T04:56:28.891Z,4.30
2018-11-01T04:58:58.035Z,4.25
2018-11-01T05:01:26.293Z,3.72
2018-11-01T05:03:55.434Z,4.53
2018-11-01T05:06:23.687Z,3.72
2018-11-01T05:08:52.214Z,4.47
2018-11-01T05:11:20.477Z,4.10
2018-11-01T05:13:49.645Z,4.40
2018-11-01T05:16:17.909Z,4.15
2018-11-01T05:18:46.541Z,3.77
2018-11-01T05:21:15.641Z,4.03
2018-11-01T05:23:43.875Z,4.17
2018-11-01T05:26:12.117Z,4.70
2018-11-01T05:28:40.371Z,4.15
2018-11-01T05:31:08.608Z,4.17
2018-11-01T05:33:36.850Z,4.08
2018-11-01T05:36:12.131Z,4.53
2018-11-01T05:38:40.374Z,4.12
2018-11-01T05:41:08.610Z,3.72
2018-11-01T05:43:36.833Z,3.77
2018-11-01T05:46:05.072Z,3.87
2018-11-01T05:48:33.305Z,3.95
2018-11-01T05:51:01.578Z,3.95
2018-11-01T05:53:29.796Z,3.72
2018-11-01T05:55:58.035Z,4.05
2018-11-01T05:58:27.176Z,3.58
2018-11-01T06:00:55.454Z,4.00
2018-11-01T06:03:23.733Z,3.90
2018-11-01T06:05:52.855Z,5.12
2018-11-01T06:08:23.183Z,3.60
2018-11-01T06:10:51.445Z,4.87
2018-11-01T06:13:19.738Z,4.10
2018-11-01T06:15:49.923Z,4.20
2018-11-01T06:18:18.235Z,4.22
2018-11-01T06:20:46.588Z,4.53
2018-11-01T06:23:14.778Z,4.05
2018-11-01T06:25:43.539Z,3.70
2018-11-01T06:28:12.541Z,3.98
2018-11-01T06:30:40.799Z,4.10
2018-11-01T06:33:09.027Z,4.45
2018-11-01T06:35:41.658Z,4.85
2018-11-01T06:38:10.769Z,4.42
2018-11-01T06:40:39.059Z,4.30
2018-11-01T06:43:07.346Z,3.98
2018-11-01T06:45:35.644Z,4.58
2018-11-01T06:48:03.902Z,3.70
2018-11-01T06:50:32.133Z,4.00
2018-11-01T06:53:00.391Z,4.25
2018-11-01T06:55:28.628Z,4.50
2018-11-01T06:57:56.910Z,4.17
2018-11-01T07:00:25.162Z,3.95
2018-11-01T07:02:53.464Z,4.65
2018-11-01T07:05:21.729Z,4.22
2018-11-01T07:07:49.983Z,3.72
2018-11-01T07:10:18.230Z,4.03
2018-11-01T07:12:46.468Z,4.35
2018-11-01T07:15:16.306Z,4.20
2018-11-01T07:17:44.642Z,3.80
2018-11-01T07:20:14.082Z,4.30
2018-11-01T07:22:43.392Z,4.08
2018-11-01T07:25:13.717Z,4.28
2018-11-01T07:27:42.058Z,4.15
2018-11-01T07:30:13.462Z,3.85
2018-11-01T07:32:41.761Z,4.10
2018-11-01T07:35:10.950Z,3.90
2018-11-01T07:37:41.794Z,3.92
2018-11-01T07:40:12.010Z,3.65
2018-11-01T07:42:40.549Z,3.80
2018-11-01T07:45:13.130Z,3.83
2018-11-01T07:47:43.237Z,4.40
2018-11-01T07:50:12.282Z,3.75
2018-11-01T07:52:41.016Z,4.40
2018-11-01T07:55:12.988Z,4.12
2018-11-01T07:57:41.220Z,4.47
2018-11-01T08:00:16.062Z,3.87
2018-11-01T08:02:46.065Z,4.42
2018-11-01T08:05:14.442Z,3.92
2018-11-01T08:07:43.658Z,3.62
2018-11-01T08:10:15.023Z,3.92
2018-11-01T08:12:44.137Z,4.25
2018-11-01T08:15:16.900Z,3.95
2018-11-01T08:17:45.122Z,4.12
2018-11-01T08:20:14.592Z,4.03
2018-11-01T08:22:43.067Z,3.70
2018-11-01T08:25:12.041Z,4.08
2018-11-01T08:27:40.950Z,4.30
2018-11-01T08:30:11.673Z,3.72
2018-11-01T08:32:39.960Z,4.47
2018-11-01T08:35:09.060Z,4.67
2018-11-01T08:37:37.749Z,4.05
2018-11-01T08:40:08.300Z,4.47
2018-11-01T08:42:36.516Z,4.03
2018-11-01T08:45:07.606Z,4.42
2018-11-01T08:47:35.886Z,4.53
2018-11-01T08:50:05.000Z,4.35
2018-11-01T08:52:33.194Z,3.72
2018-11-01T08:55:01.450Z,4.33
2018-11-01T08:57:29.680Z,3.65
2018-11-01T08:59:57.940Z,3.67
2018-11-01T09:02:26.186Z,4.10
2018-11-01T09:04:54.521Z,3.62
2018-11-01T09:07:22.826Z,4.15
2018-11-01T09:09:51.121Z,4.20
2018-11-01T09:12:19.417Z,4.35
2018-11-01T09:14:47.675Z,3.67
2018-11-01T09:17:15.902Z,4.15
2018-11-01T09:19:44.146Z,4.33
2018-11-01T09:22:12.408Z,4.20
2018-11-01T09:24:40.692Z,4.17
2018-11-01T09:27:13.001Z,4.60
2018-11-01T09:29:41.245Z,4.25
2018-11-01T09:32:09.491Z,3.90
2018-11-01T09:34:37.744Z,3.95
2018-11-01T09:37:06.010Z,4.25
2018-11-01T09:39:34.293Z,4.22
2018-11-01T09:42:02.550Z,3.77
2018-11-01T09:44:30.812Z,4.20
2018-11-01T09:46:59.450Z,4.03
2018-11-01T09:49:27.297Z,3.92
2018-11-01T09:51:55.574Z,4.20
2018-11-01T09:54:23.812Z,3.60
2018-11-01T09:56:52.069Z,3.27
2018-11-01T09:59:20.299Z,3.83
2018-11-01T10:01:48.621Z,3.52
2018-11-01T10:04:16.882Z,3.52
2018-11-01T10:06:45.187Z,3.47
2018-11-01T10:09:13.424Z,3.02
2018-11-01T10:11:41.688Z,3.52
2018-11-01T10:14:09.973Z,4.03
2018-11-01T10:16:38.846Z,3.02
2018-11-01T10:19:07.747Z,4.15
2018-11-01T10:21:36.029Z,3.70
2018-11-01T10:24:04.293Z,3.95
2018-11-01T10:26:32.538Z,3.62
2018-11-01T10:29:00.804Z,3.75
2018-11-01T10:31:29.080Z,3.70
2018-11-01T10:33:57.400Z,3.35
2018-11-01T10:36:25.570Z,3.60
2018-11-01T10:38:53.839Z,3.27
2018-11-01T10:41:22.094Z,3.37
2018-11-01T10:43:50.349Z,3.58
2018-11-01T10:46:18.815Z,2.85
2018-11-01T10:48:51.002Z,3.12
2018-11-01T10:51:19.240Z,3.12
2018-11-01T10:53:47.588Z,3.42
2018-11-01T10:56:15.724Z,2.75
2018-11-01T10:58:43.962Z,2.75
2018-11-01T11:01:17.679Z,2.52
2018-11-01T11:03:45.817Z,2.58
2018-11-01T11:06:14.224Z,2.62
2018-11-01T11:08:42.572Z,2.47
2018-11-01T11:11:10.874Z,2.58
2018-11-01T11:13:39.170Z,2.62
2018-11-01T11:16:07.637Z,2.60
2018-11-01T11:18:36.230Z,2.60
2018-11-01T11:21:04.842Z,2.10
2018-11-01T11:23:32.864Z,2.50
2018-11-01T11:26:01.308Z,2.72
2018-11-01T11:28:29.860Z,1.98
2018-11-01T11:30:58.241Z,2.08
2018-11-01T11:33:26.581Z,2.30
2018-11-01T11:35:54.953Z,2.00
2018-11-01T11:38:23.270Z,2.45
2018-11-01T11:40:51.733Z,1.98
2018-11-01T11:43:20.424Z,2.37
2018-11-01T11:45:48.946Z,1.82
2018-11-01T11:48:17.314Z,2.17
2018-11-01T11:50:45.628Z,2.12
2018-11-01T11:53:14.526Z,2.27
2018-11-01T11:55:43.041Z,2.10
2018-11-01T11:58:11.487Z,2.33
2018-11-01T12:00:40.149Z,2.10
2018-11-01T12:03:08.469Z,2.35
2018-11-01T12:05:36.802Z,2.67
2018-11-01T12:08:04.958Z,2.02
2018-11-01T12:10:33.201Z,2.25
2018-11-01T12:13:01.444Z,2.05
2018-11-01T12:15:29.711Z,2.67
2018-11-01T12:17:57.949Z,2.05
2018-11-01T12:20:26.199Z,2.12
2018-11-01T12:22:54.475Z,1.95
2018-11-01T12:25:22.714Z,2.33
2018-11-01T12:27:50.962Z,1.72
2018-11-01T12:30:19.216Z,2.35
2018-11-01T12:32:47.452Z,2.20
2018-11-01T12:35:15.736Z,2.83
2018-11-01T12:37:43.961Z,2.15
2018-11-01T12:40:13.038Z,2.47
2018-11-01T12:42:41.294Z,2.40
2018-11-01T12:45:13.931Z,1.80
2018-11-01T12:47:42.443Z,2.50
2018-11-01T12:50:12.305Z,2.27
2018-11-01T12:52:41.106Z,2.35
2018-11-01T12:55:09.639Z,1.80
2018-11-01T12:57:37.928Z,2.20
2018-11-01T13:00:14.353Z,2.12
2018-11-01T13:02:42.805Z,2.60
2018-11-01T13:05:10.888Z,2.17
2018-11-01T13:07:39.186Z,2.37
2018-11-01T13:10:07.431Z,2.62
2018-11-01T13:12:35.748Z,2.55
2018-11-01T13:15:05.176Z,2.17
2018-11-01T13:17:33.446Z,2.33
2018-11-01T13:20:02.571Z,2.72
2018-11-01T13:22:30.828Z,2.02
2018-11-01T13:24:59.378Z,2.35
2018-11-01T13:30:02.495Z,2.52
2018-11-01T13:32:30.728Z,2.55
2018-11-01T13:34:59.068Z,2.15
2018-11-01T13:37:27.663Z,2.77
2018-11-01T13:39:56.151Z,2.52
2018-11-01T13:42:25.087Z,2.72
2018-11-01T13:44:53.379Z,2.72
2018-11-01T13:47:22.145Z,2.90
2018-11-01T13:49:50.328Z,2.50
2018-11-01T13:52:19.530Z,2.90
2018-11-01T13:54:47.826Z,2.95
2018-11-01T13:57:16.313Z,3.22
2018-11-01T13:59:44.579Z,3.27
2018-11-01T14:02:12.821Z,2.95
2018-11-01T14:04:41.423Z,2.85
2018-11-01T14:07:09.803Z,2.90
2018-11-01T14:09:38.054Z,3.10
2018-11-01T14:12:07.166Z,3.30
2018-11-01T14:14:35.876Z,2.92
2018-11-01T14:17:03.641Z,2.92
2018-11-01T14:19:31.913Z,2.75
2018-11-01T14:22:00.257Z,3.00
2018-11-01T14:24:28.494Z,2.85
2018-11-01T14:26:56.768Z,3.37
2018-11-01T14:29:25.174Z,3.33
2018-11-01T14:31:53.453Z,2.95
2018-11-01T14:34:21.697Z,3.40
2018-11-01T14:36:49.945Z,3.20
2018-11-01T14:39:18.177Z,3.85
2018-11-01T14:41:47.876Z,2.77
2018-11-01T14:44:16.178Z,4.40
2018-11-01T14:46:44.434Z,3.40
2018-11-01T14:49:12.730Z,3.52
2018-11-01T14:51:41.001Z,3.55
2018-11-01T14:54:14.309Z,3.30
2018-11-01T14:56:43.410Z,3.17
2018-11-01T14:59:11.647Z,3.02
2018-11-01T15:01:38.385Z,3.02
2018-11-01T15:04:06.631Z,3.45
2018-11-01T15:06:34.924Z,3.33
2018-11-01T15:09:03.503Z,3.67
2018-11-01T15:11:31.763Z,3.83
2018-11-01T15:14:00.002Z,4.53
2018-11-01T15:16:28.288Z,4.20
2018-11-01T15:18:56.581Z,3.45
2018-11-01T15:21:24.811Z,3.50
2018-11-01T15:23:53.087Z,3.35
2018-11-01T15:26:21.497Z,3.55
2018-11-01T15:28:50.925Z,3.30
2018-11-01T15:31:19.172Z,3.65
2018-11-01T15:33:47.621Z,3.45
2018-11-01T15:36:16.579Z,3.70
2018-11-01T15:38:44.810Z,3.55
2018-11-01T15:41:13.645Z,3.10
2018-11-01T15:43:43.322Z,2.92
2018-11-01T15:46:12.203Z,3.17
2018-11-01T15:48:40.919Z,3.67
2018-11-01T15:51:10.238Z,3.60
2018-11-01T15:53:39.538Z,3.80
2018-11-01T15:56:07.928Z,4.58
2018-11-01T15:58:36.416Z,4.53
2018-11-01T16:01:05.280Z,3.80
2018-11-01T16:03:33.749Z,3.80
2018-11-01T16:06:01.838Z,3.25
2018-11-01T16:08:30.097Z,3.45
2018-11-01T16:10:58.362Z,3.20
2018-11-01T16:13:26.617Z,3.27
2018-11-01T16:15:54.871Z,3.37
2018-11-01T16:18:23.123Z,3.10
2018-11-01T16:20:51.379Z,3.35
2018-11-01T16:23:19.674Z,4.33
2018-11-01T16:25:47.925Z,4.40
2018-11-01T16:28:16.235Z,3.52
2018-11-01T16:30:44.490Z,3.80
2018-11-01T16:33:12.755Z,3.15
2018-11-01T16:35:41.020Z,3.87
2018-11-01T16:38:09.252Z,4.40
2018-11-01T16:40:37.505Z,4.15
2018-11-01T16:43:06.334Z,4.17
2018-11-01T16:45:34.634Z,4.42
2018-11-01T16:48:02.860Z,4.28
2018-11-01T16:50:31.113Z,4.37
2018-11-01T16:52:59.344Z,3.85
2018-11-01T16:55:27.584Z,3.67
2018-11-01T16:57:55.832Z,4.85
2018-11-01T17:00:24.212Z,4.03
2018-11-01T17:02:52.455Z,3.40
2018-11-01T17:05:20.731Z,4.12
2018-11-01T17:07:49.009Z,4.92
2018-11-01T17:10:17.414Z,4.65
2018-11-01T17:12:45.528Z,4.20
2018-11-01T17:15:15.094Z,3.83
2018-11-01T17:17:44.441Z,3.65
2018-11-01T17:20:12.698Z,4.12
2018-11-01T17:22:41.461Z,4.78
2018-11-01T17:25:09.832Z,5.85
2018-11-01T17:27:38.034Z,5.37
2018-11-01T17:30:07.823Z,5.22
2018-11-01T17:32:41.374Z,4.20
2018-11-01T17:35:09.885Z,4.83
2018-11-01T17:37:38.110Z,5.05
2018-11-01T17:40:07.523Z,4.28
2018-11-01T17:42:35.710Z,4.22
2018-11-01T17:45:06.566Z,4.35
2018-11-01T17:47:34.786Z,4.08
2018-11-01T17:50:03.033Z,4.60
2018-11-01T17:52:31.286Z,4.85
2018-11-01T17:54:59.521Z,4.28
2018-11-01T17:57:27.878Z,5.17
2018-11-01T17:59:56.198Z,5.22
2018-11-01T18:02:24.563Z,5.62
2018-11-01T18:04:52.721Z,6.35
2018-11-01T18:07:20.945Z,6.28
2018-11-01T18:09:49.194Z,7.55
2018-11-01T18:12:17.439Z,6.28
2018-11-01T18:14:46.563Z,6.40
2018-11-01T18:17:14.832Z,5.45
2018-11-01T18:19:43.089Z,6.10
2018-11-01T18:22:12.081Z,7.03
2018-11-01T18:24:40.334Z,6.10
2018-11-01T18:27:12.450Z,6.50
2018-11-01T18:29:40.718Z,7.17
2018-11-01T18:32:09.029Z,6.53
2018-11-01T18:34:37.360Z,7.05
2018-11-01T18:37:05.674Z,6.90
2018-11-01T18:39:34.043Z,7.28
2018-11-01T18:42:02.221Z,7.08
2018-11-01T18:44:30.572Z,6.70
2018-11-01T18:46:58.845Z,6.75
2018-11-01T18:49:27.111Z,6.25
2018-11-01T18:51:55.359Z,7.17
2018-11-01T18:54:23.659Z,7.25
2018-11-01T18:56:51.892Z,6.85
2018-11-01T18:59:20.160Z,6.25
2018-11-01T19:01:49.448Z,5.78
2018-11-01T19:04:17.772Z,5.70
2018-11-01T19:06:46.158Z,6.28
2018-11-01T19:09:14.390Z,6.83
2018-11-01T19:11:42.670Z,6.70
2018-11-01T19:14:11.980Z,6.72
2018-11-01T19:16:40.225Z,6.55
2018-11-01T19:19:08.587Z,7.62
2018-11-01T19:21:36.920Z,6.37
2018-11-01T19:24:05.277Z,6.20
2018-11-01T19:26:33.548Z,6.55
2018-11-01T19:29:01.818Z,5.83
2018-11-01T19:31:30.202Z,5.00
2018-11-01T19:33:58.648Z,5.33
2018-11-01T19:36:26.880Z,6.80
2018-11-01T19:38:55.448Z,6.22
2018-11-01T19:41:24.178Z,6.05
2018-11-01T19:43:53.373Z,6.30
2018-11-01T19:46:21.649Z,5.90
2018-11-01T19:48:49.898Z,5.03
2018-11-01T19:51:18.127Z,5.40
2018-11-01T19:53:46.392Z,5.05
2018-11-01T19:56:14.682Z,5.42
2018-11-01T19:58:43.080Z,5.72
2018-11-01T20:01:11.387Z,5.22
2018-11-01T20:03:39.655Z,5.47
2018-11-01T20:06:07.905Z,4.90
2018-11-01T20:08:37.029Z,5.97
2018-11-01T20:11:05.749Z,5.83
2018-11-01T20:13:34.357Z,5.78
2018-11-01T20:16:02.646Z,5.65
2018-11-01T20:18:31.052Z,6.55
2018-11-01T20:21:00.702Z,5.70
2018-11-01T20:23:29.007Z,5.40
2018-11-01T20:25:57.651Z,5.70
2018-11-01T20:28:25.921Z,5.20
2018-11-01T20:30:54.723Z,5.08
2018-11-01T20:33:23.125Z,5.22
2018-11-01T20:35:51.358Z,4.95
2018-11-01T20:38:19.683Z,5.30
2018-11-01T20:40:47.889Z,5.10
2018-11-01T20:43:16.145Z,4.45
2018-11-01T20:45:44.421Z,5.53
2018-11-01T20:48:12.685Z,5.40
2018-11-01T20:50:40.970Z,6.45
2018-11-01T20:53:09.268Z,5.87
2018-11-01T20:55:37.601Z,6.83
2018-11-01T20:58:06.000Z,6.15
2018-11-01T21:00:36.426Z,6.17
2018-11-01T21:03:04.906Z,6.95
2018-11-01T21:05:33.151Z,6.45
2018-11-01T21:08:01.485Z,7.00
2018-11-01T21:10:29.736Z,8.18
2018-11-01T21:12:57.968Z,8.18
2018-11-01T21:15:26.198Z,7.75
2018-11-01T21:17:54.466Z,8.03
2018-11-01T21:20:22.772Z,9.43
2018-11-01T21:22:51.050Z,8.85
2018-11-01T21:25:20.321Z,8.38
2018-11-01T21:27:48.573Z,9.33
2018-11-01T21:30:17.767Z,8.50
2018-11-01T21:32:46.038Z,9.05
2018-11-01T21:35:14.435Z,9.50
2018-11-01T21:37:42.583Z,10.70
2018-11-01T21:40:11.750Z,10.82
2018-11-01T21:42:40.004Z,9.25
2018-11-01T21:45:15.474Z,10.30
2018-11-01T21:47:43.974Z,13.98
2018-11-01T21:50:13.155Z,10.60
2018-11-01T21:52:41.400Z,10.88
2018-11-01T21:55:10.009Z,12.03
2018-11-01T21:57:38.375Z,12.30
2018-11-01T22:00:13.342Z,11.93
2018-11-01T22:02:42.200Z,13.98
2018-11-01T22:05:11.929Z,13.55
2018-11-01T22:07:40.605Z,13.22
2018-11-01T22:10:10.528Z,14.47
2018-11-01T22:12:39.088Z,13.62
2018-11-01T22:15:08.693Z,13.38
2018-11-01T22:17:37.003Z,13.20
2018-11-01T22:20:07.099Z,15.63
2018-11-01T22:22:35.374Z,14.70
2018-11-01T22:25:03.681Z,13.93
2018-11-01T22:27:31.965Z,13.80
2018-11-01T22:30:00.201Z,14.58
2018-11-01T22:32:28.443Z,15.13
2018-11-01T22:34:56.697Z,15.18
2018-11-01T22:37:25.218Z,15.38
2018-11-01T22:39:54.148Z,15.28
2018-11-01T22:42:22.398Z,13.50
2018-11-01T22:44:51.537Z,15.75
2018-11-01T22:47:19.829Z,14.25
2018-11-01T22:49:48.140Z,14.50
2018-11-01T22:52:16.373Z,15.43
2018-11-01T22:54:44.639Z,16.05
2018-11-01T22:57:12.895Z,16.55
2018-11-01T22:59:41.161Z,14.78
2018-11-01T23:02:09.411Z,14.43
2018-11-01T23:04:37.653Z,13.93
2018-11-01T23:07:05.957Z,15.35
2018-11-01T23:09:34.203Z,17.17
2018-11-01T23:12:02.451Z,15.48
2018-11-01T23:14:30.682Z,13.80
2018-11-01T23:16:58.926Z,15.30
2018-11-01T23:19:28.062Z,16.05
2018-11-01T23:21:56.296Z,17.23
2018-11-01T23:24:24.538Z,18.40
2018-11-01T23:26:52.795Z,16.17
2018-11-01T23:29:21.025Z,15.93
2018-11-01T23:31:49.269Z,16.87
2018-11-01T23:34:17.523Z,14.53
2018-11-01T23:36:51.057Z,16.07
2018-11-01T23:39:24.743Z,15.72
2018-11-01T23:41:58.382Z,15.78
2018-11-01T23:44:32.070Z,14.47
2018-11-01T23:47:06.183Z,18.20
2018-11-01T23:49:39.561Z,15.95
2018-11-01T23:52:10.061Z,15.93
2018-11-01T23:54:38.304Z,14.68
2018-11-01T23:57:06.560Z,16.90
2018-11-01T23:59:34.800Z,14.50
